ADDS METAR Data INFO
IDs: Format: Raw Decoded Include TAF

Data at: 0315 UTC 16 Dec 2017

KSYF 160255Z AUTO 23010KT 10SM CLR 01/M13 A2983 RMK AO2 T00131130
KSYF 160235Z AUTO 22010KT 10SM CLR 03/M13 A2983 RMK AO2 T00291128
KSYF 160215Z AUTO 22010KT 10SM CLR 03/M13 A2983 RMK AO2 T00251132
KSYF 160155Z AUTO 21010KT 10SM CLR 03/M14 A2984 RMK AO2 T00261138
KSYF 160135Z AUTO 23010KT 10SM CLR 02/M15 A2985 RMK AO2 T00191146
KSYF 160115Z AUTO 22009KT 10SM CLR 01/M15 A2984 RMK AO2 T00131155
KSYF 160055Z AUTO 22008KT 10SM CLR 03/M16 A2984 RMK AO2 T00291156
KSYF 160035Z AUTO 20009KT 10SM CLR 04/M16 A2984 RMK AO2 T00371160
KSYF 160015Z AUTO 20009KT 10SM CLR 06/M16 A2985 RMK AO2 T00581160
KSYF 152355Z AUTO 20009KT 10SM CLR 06/M16 A2986 RMK AO2 T00641161 10171 20064
KSYF 152335Z AUTO 21008KT 10SM CLR 09/M17 A2986 RMK AO2 T00881168
KSYF 152315Z AUTO 21008KT 10SM CLR 12/M16 A2986 RMK AO2 T01151163
KSYF 152255Z AUTO 21009KT 10SM CLR 14/M16 A2986 RMK AO2 T01421164
KSYF 152235Z AUTO 23008KT 10SM CLR 16/M17 A2986 RMK AO2 T01611175
KSYF 152215Z AUTO 26010G14KT 10SM CLR 17/M17 A2987 RMK AO2 T01681170
KSYF 152155Z AUTO 25009G14KT 10SM CLR 17/M17 A2987 RMK AO2 T01701166
KSYF 152135Z AUTO 27010G15KT 10SM CLR 17/M16 A2989 RMK AO2 T01711165
KSYF 152115Z AUTO 28010KT 10SM CLR 17/M17 A2989 RMK AO2 T01701166
KSYF 152055Z AUTO 28014G18KT 10SM CLR 17/M17 A2989 RMK AO2 T01701169
KSYF 152035Z AUTO 29011G17KT 10SM CLR 17/M17 A2990 RMK AO2 T01681172
KSYF 152015Z AUTO 25012G17KT 10SM CLR 16/M17 A2991 RMK AO2 T01641170
KSYF 151955Z AUTO 25010G18KT 10SM CLR 16/M17 A2992 RMK AO2 T01601173
KSYF 151935Z AUTO 24014KT 10SM CLR 16/M16 A2994 RMK AO2 T01551165
KSYF 151915Z AUTO 25013KT 10SM CLR 15/M16 A2996 RMK AO2 T01461160
KSYF 151855Z AUTO 23014KT 10SM CLR 14/M14 A2996 RMK AO2 T01351143
KSYF 151835Z AUTO 25012KT 10SM CLR 12/M13 A2998 RMK AO2 T01231129
KSYF 151815Z AUTO 24012KT 10SM CLR 11/M11 A2999 RMK AO2 T01111108
KSYF 151755Z AUTO 24011KT 10SM CLR 09/M10 A3001 RMK AO2 T00921100 10092 21090
KSYF 151735Z AUTO 24011KT 10SM CLR 07/M09 A3002 RMK AO2 T00671087
KSYF 151715Z AUTO 24008KT 10SM CLR 05/M08 A3003 RMK AO2 T00481080
KSYF 151655Z AUTO 23009KT 10SM CLR 03/M08 A3003 RMK AO2 T00281079
KSYF 151635Z AUTO 24009KT 10SM CLR 01/M08 A3003 RMK AO2 T00061079
KSYF 151615Z AUTO 24013KT 10SM CLR M01/M08 A3003 RMK AO2 T10131083
KSYF 151555Z AUTO 24012KT 10SM CLR M03/M08 A3004 RMK AO2 T10331081
KSYF 151535Z AUTO 24012KT 10SM CLR M05/M09 A3004 RMK AO2 T10461086
KSYF 151515Z AUTO 24011KT 10SM CLR M06/M09 A3004 RMK AO2 T10591090
KSYF 151455Z AUTO 23009KT 10SM CLR M07/M09 A3004 RMK AO2 T10691094
KSYF 151435Z AUTO 23010KT 10SM CLR M07/M10 A3004 RMK AO2 T10751098
KSYF 151415Z AUTO 23009KT 10SM CLR M08/M10 A3005 RMK AO2 T10781100
KSYF 151355Z AUTO 24009KT 10SM CLR M08/M10 A3005 RMK AO2 T10841103
KSYF 151335Z AUTO 23009KT 10SM CLR M09/M11 A3007 RMK AO2 T10891107
KSYF 151315Z AUTO 24008KT 10SM CLR M09/M11 A3008 RMK AO2 T10891108
KSYF 151255Z AUTO 23008KT 10SM CLR M08/M10 A3008 RMK AO2 T10851105
KSYF 151235Z AUTO 23009KT 10SM CLR M09/M11 A3009 RMK AO2 T10891108
KSYF 151215Z AUTO 23010KT 10SM CLR M09/M11 A3010 RMK AO2 T10881109
KSYF 151155Z AUTO 23009KT 10SM CLR M09/M11 A3010 RMK AO2 T10911110 11060 21100
KSYF 151135Z AUTO 23009KT 10SM CLR M10/M11 A3011 RMK AO2 T10961112
KSYF 151115Z AUTO 23008KT 10SM CLR M10/M11 A3012 RMK AO2 T10961113
KSYF 151055Z AUTO 23008KT 10SM CLR M09/M11 A3014 RMK AO2 T10951111
KSYF 151035Z AUTO 24008KT 10SM CLR M09/M11 A3015 RMK AO2 T10951110
KSYF 151015Z AUTO 24008KT 10SM CLR M09/M11 A3016 RMK AO2 T10951108
KSYF 150955Z AUTO 23007KT 10SM CLR M10/M11 A3017 RMK AO2 T11001112
KSYF 150935Z AUTO 23008KT 10SM CLR M09/M11 A3017 RMK AO2 T10921106
KSYF 150915Z AUTO 23009KT 10SM CLR M09/M10 A3018 RMK AO2 T10871102
KSYF 150855Z AUTO 23009KT 10SM CLR M08/M10 A3018 RMK AO2 T10851100
KSYF 150835Z AUTO 24009KT 10SM CLR M08/M10 A3019 RMK AO2 T10801100
KSYF 150815Z AUTO 23010KT 10SM CLR M08/M10 A3019 RMK AO2 T10771097
KSYF 150755Z AUTO 23010KT 10SM CLR M07/M10 A3020 RMK AO2 T10751097
KSYF 150735Z AUTO 23008KT 10SM CLR M08/M10 A3020 RMK AO2 T10801101
KSYF 150715Z AUTO 23007KT 10SM CLR M08/M10 A3020 RMK AO2 T10781101
KSYF 150655Z AUTO 25006KT 10SM CLR M08/M10 A3021 RMK AO2 T10851104
KSYF 150635Z AUTO 24006KT 10SM CLR M07/M10 A3023 RMK AO2 T10751100
KSYF 150615Z AUTO 23004KT 10SM CLR M07/M10 A3023 RMK AO2 T10711098
KSYF 150555Z AUTO 28006KT 10SM CLR M06/M09 A3024 RMK AO2 T10611090 10002 21062 400691062
KSYF 150535Z AUTO 27005KT 10SM CLR M06/M08 A3024 RMK AO2 T10591084
KSYF 150515Z AUTO 26008KT 10SM CLR M06/M08 A3024 RMK AO2 T10601079
KSYF 150455Z AUTO 25006KT 10SM CLR M06/M08 A3024 RMK AO2 T10561076
KSYF 150435Z AUTO 24004KT 10SM CLR M05/M08 A3024 RMK AO2 T10481076
KSYF 150415Z AUTO 28005KT 10SM BKN050 M04/M07 A3025 RMK AO2 T10361069
KSYF 150355Z AUTO 29004KT 10SM OVC060 M04/M07 A3025 RMK AO2 T10401071
KSYF 150335Z AUTO 27005KT 10SM SCT060 M03/M07 A3025 RMK AO2 T10321070
KSYF 150315Z AUTO 29006KT 10SM SCT060 M03/M07 A3025 RMK AO2 T10331073
KSYF 150255Z AUTO 31005KT 10SM BKN060 M02/M07 A3025 RMK AO2 T10171067
KSYF 150235Z AUTO 31005KT 10SM OVC060 M01/M06 A3024 RMK AO2 T10101063
KSYF 150215Z AUTO 31006KT 10SM OVC060 00/M06 A3024 RMK AO2 T10021060
KSYF 150155Z AUTO 32007KT 10SM OVC060 00/M06 A3024 RMK AO2 T00001060
KSYF 150135Z AUTO 32007KT 10SM OVC060 00/M06 A3024 RMK AO2 T00001061
KSYF 150115Z AUTO 32007KT 10SM OVC060 00/M06 A3024 RMK AO2 T00021063
KSYF 150055Z AUTO 32008KT 10SM OVC070 00/M06 A3023 RMK AO2 T00001065
KSYF 150035Z AUTO 33008KT 10SM OVC070 00/M07 A3023 RMK AO2 T00001066
KSYF 150015Z AUTO 32010KT 10SM BKN070 00/M06 A3023 RMK AO2 T00001065
KSYF 142355Z AUTO 36010KT 10SM SCT070 00/M06 A3021 RMK AO2 T00001061 10069 20000
KSYF 142335Z AUTO 35011G16KT 10SM SCT065 00/M05 A3020 RMK AO2 T00021053
KSYF 142315Z AUTO 35012G17KT 10SM SCT032 SCT055 OVC065 01/M04 A3020 RMK AO2 T00101045
KSYF 142255Z AUTO 36011KT 7SM -SN SCT016 BKN050 OVC065 01/M02 A3021 RMK AO2 T00081020
KSYF 142235Z AUTO 34015G22KT 10SM SCT060 OVC075 03/M05 A3019 RMK AO2 T00291051
KSYF 142215Z AUTO 34015G25KT 10SM SCT047 BKN060 OVC070 04/M10 A3018 RMK AO2 T00351097
KSYF 142155Z AUTO 34013G21KT 10SM SCT039 SCT047 BKN070 03/M05 A3018 RMK AO2 T00331053
KSYF 142135Z AUTO 36014G18KT 10SM BKN080 04/M04 A3017 RMK AO2 T00351037
KSYF 142115Z AUTO 01013G21KT 10SM SCT017 SCT050 BKN080 03/M03 A3018 RMK AO2 T00341028
KSYF 142055Z AUTO 36015G26KT 10SM SCT017 BKN028 BKN050 03/M02 A3018 RMK AO2 T00261023
KSYF 142035Z AUTO 01016G25KT 10SM SCT020 BKN060 OVC075 03/M02 A3018 RMK AO2 T00261022
KSYF 142015Z AUTO 02021G31KT 10SM SCT036 BKN060 OVC075 04/M03 A3016 RMK AO2 T00401027
KSYF 141955Z AUTO 33017G25KT 10SM SCT048 BKN055 OVC100 05/M09 A3015 RMK AO2 T00521087
KSYF 141935Z AUTO 35016G30KT 10SM SCT046 SCT055 OVC095 05/M04 A3015 RMK AO2 T00471041
KSYF 141915Z AUTO 34020G36KT 10SM SCT049 SCT070 OVC095 06/M07 A3014 RMK AO2 T00641075
KSYF 141855Z AUTO 34016G25KT 10SM BKN049 OVC060 06/M06 A3014 RMK AO2 T00611059
KSYF 141835Z AUTO 32020G29KT 10SM SCT047 BKN075 OVC110 06/M06 A3015 RMK AO2 T00581056
KSYF 141815Z AUTO 33016G27KT 10SM SCT055 OVC110 06/M05 A3015 RMK AO2 T00571047
KSYF 141755Z AUTO 32018G31KT 10SM OVC110 05/M05 A3015 RMK AO2 T00541047 10054 21006
KSYF 141735Z AUTO 32019G25KT 10SM OVC100 05/M05 A3016 RMK AO2 T00501046
KSYF 141715Z AUTO 31018G23KT 10SM OVC100 05/M04 A3016 RMK AO2 T00461040
KSYF 141655Z AUTO 30015G22KT 10SM OVC100 04/M04 A3017 RMK AO2 T00441039
KSYF 141635Z AUTO 31014G19KT 10SM OVC110 04/M04 A3016 RMK AO2 T00431036
KSYF 141615Z AUTO 31015G20KT 10SM BKN110 04/M03 A3015 RMK AO2 T00361032
KSYF 141555Z AUTO 31013KT 10SM OVC100 03/M03 A3016 RMK AO2 T00261031
KSYF 141535Z AUTO 29012KT 10SM OVC100 01/M03 A3016 RMK AO2 T00141027